sensor_id;sensor_type;location;lat;lon;timestamp;P1;durP1;ratioP1;P2;durP2;ratioP2
1402;SDS011;696;48.546;9.896;2024-03-25T00:01:49;0.35;;;0.35;;
1402;SDS011;696;48.546;9.896;2024-03-25T00:04:14;0.30;;;0.30;;
1402;SDS011;696;48.546;9.896;2024-03-25T00:06:39;0.40;;;0.40;;
1402;SDS011;696;48.546;9.896;2024-03-25T00:09:05;0.40;;;0.40;;
1402;SDS011;696;48.546;9.896;2024-03-25T00:11:32;0.30;;;0.30;;
1402;SDS011;696;48.546;9.896;2024-03-25T00:13:58;0.30;;;0.30;;
1402;SDS011;696;48.546;9.896;2024-03-25T00:16:23;0.43;;;0.43;;
1402;SDS011;696;48.546;9.896;2024-03-25T00:18:48;0.40;;;0.40;;
1402;SDS011;696;48.546;9.896;2024-03-25T00:21:14;0.30;;;0.30;;
1402;SDS011;696;48.546;9.896;2024-03-25T00:23:39;0.32;;;0.32;;
1402;SDS011;696;48.546;9.896;2024-03-25T00:26:05;0.40;;;0.40;;
1402;SDS011;696;48.546;9.896;2024-03-25T00:28:30;0.38;;;0.38;;
1402;SDS011;696;48.546;9.896;2024-03-25T00:30:55;0.30;;;0.30;;
1402;SDS011;696;48.546;9.896;2024-03-25T00:33:21;0.43;;;0.43;;
1402;SDS011;696;48.546;9.896;2024-03-25T00:35:47;0.40;;;0.40;;
1402;SDS011;696;48.546;9.896;2024-03-25T00:38:12;0.40;;;0.40;;
1402;SDS011;696;48.546;9.896;2024-03-25T00:40:38;0.38;;;0.38;;
1402;SDS011;696;48.546;9.896;2024-03-25T00:43:03;0.32;;;0.32;;
1402;SDS011;696;48.546;9.896;2024-03-25T00:45:28;0.40;;;0.40;;
1402;SDS011;696;48.546;9.896;2024-03-25T00:47:56;0.30;;;0.30;;
1402;SDS011;696;48.546;9.896;2024-03-25T00:50:21;0.40;;;0.40;;
1402;SDS011;696;48.546;9.896;2024-03-25T00:52:47;0.40;;;0.40;;
1402;SDS011;696;48.546;9.896;2024-03-25T00:55:12;0.40;;;0.40;;
1402;SDS011;696;48.546;9.896;2024-03-25T00:57:38;0.35;;;0.35;;
1402;SDS011;696;48.546;9.896;2024-03-25T01:00:03;0.40;;;0.40;;
1402;SDS011;696;48.546;9.896;2024-03-25T01:02:29;0.30;;;0.30;;
1402;SDS011;696;48.546;9.896;2024-03-25T01:04:55;0.35;;;0.35;;
1402;SDS011;696;48.546;9.896;2024-03-25T01:07:21;0.40;;;0.40;;
1402;SDS011;696;48.546;9.896;2024-03-25T01:09:47;0.43;;;0.43;;
1402;SDS011;696;48.546;9.896;2024-03-25T01:12:12;0.38;;;0.38;;
1402;SDS011;696;48.546;9.896;2024-03-25T01:14:37;0.40;;;0.40;;
1402;SDS011;696;48.546;9.896;2024-03-25T01:17:03;0.40;;;0.40;;
1402;SDS011;696;48.546;9.896;2024-03-25T01:19:29;0.40;;;0.40;;
1402;SDS011;696;48.546;9.896;2024-03-25T01:21:54;0.40;;;0.40;;
1402;SDS011;696;48.546;9.896;2024-03-25T01:24:19;0.30;;;0.30;;
1402;SDS011;696;48.546;9.896;2024-03-25T01:26:45;0.40;;;0.40;;
1402;SDS011;696;48.546;9.896;2024-03-25T01:29:10;0.30;;;0.30;;
1402;SDS011;696;48.546;9.896;2024-03-25T01:31:35;0.40;;;0.40;;
1402;SDS011;696;48.546;9.896;2024-03-25T01:34:01;0.30;;;0.30;;
1402;SDS011;696;48.546;9.896;2024-03-25T01:36:26;0.40;;;0.40;;
1402;SDS011;696;48.546;9.896;2024-03-25T01:38:52;0.30;;;0.30;;
1402;SDS011;696;48.546;9.896;2024-03-25T01:41:19;0.40;;;0.40;;
1402;SDS011;696;48.546;9.896;2024-03-25T01:43:47;0.40;;;0.40;;
1402;SDS011;696;48.546;9.896;2024-03-25T01:46:13;0.40;;;0.40;;
1402;SDS011;696;48.546;9.896;2024-03-25T01:48:40;0.47;;;0.47;;
1402;SDS011;696;48.546;9.896;2024-03-25T01:51:06;0.30;;;0.30;;
1402;SDS011;696;48.546;9.896;2024-03-25T01:53:32;0.50;;;0.50;;
1402;SDS011;696;48.546;9.896;2024-03-25T01:55:57;0.30;;;0.30;;
1402;SDS011;696;48.546;9.896;2024-03-25T01:58:24;0.43;;;0.43;;
1402;SDS011;696;48.546;9.896;2024-03-25T02:00:50;0.40;;;0.40;;
1402;SDS011;696;48.546;9.896;2024-03-25T02:03:17;0.40;;;0.40;;
1402;SDS011;696;48.546;9.896;2024-03-25T02:05:43;0.40;;;0.40;;
1402;SDS011;696;48.546;9.896;2024-03-25T02:08:09;0.50;;;0.50;;
1402;SDS011;696;48.546;9.896;2024-03-25T02:10:34;0.50;;;0.50;;
1402;SDS011;696;48.546;9.896;2024-03-25T02:13:00;0.40;;;0.40;;
1402;SDS011;696;48.546;9.896;2024-03-25T02:15:26;0.40;;;0.40;;
1402;SDS011;696;48.546;9.896;2024-03-25T02:17:51;0.40;;;0.40;;
1402;SDS011;696;48.546;9.896;2024-03-25T02:20:17;0.40;;;0.40;;
1402;SDS011;696;48.546;9.896;2024-03-25T02:22:42;0.30;;;0.30;;
1402;SDS011;696;48.546;9.896;2024-03-25T02:25:10;0.43;;;0.43;;
1402;SDS011;696;48.546;9.896;2024-03-25T02:27:36;0.30;;;0.30;;
1402;SDS011;696;48.546;9.896;2024-03-25T02:30:03;0.30;;;0.30;;
1402;SDS011;696;48.546;9.896;2024-03-25T02:32:30;0.40;;;0.40;;
1402;SDS011;696;48.546;9.896;2024-03-25T02:34:56;0.30;;;0.30;;
1402;SDS011;696;48.546;9.896;2024-03-25T02:37:22;0.30;;;0.30;;
1402;SDS011;696;48.546;9.896;2024-03-25T02:39:48;0.40;;;0.40;;
1402;SDS011;696;48.546;9.896;2024-03-25T02:42:13;0.38;;;0.38;;
1402;SDS011;696;48.546;9.896;2024-03-25T02:44:39;0.40;;;0.40;;
1402;SDS011;696;48.546;9.896;2024-03-25T02:47:08;0.50;;;0.50;;
1402;SDS011;696;48.546;9.896;2024-03-25T02:49:33;0.40;;;0.40;;
1402;SDS011;696;48.546;9.896;2024-03-25T02:51:59;0.40;;;0.40;;
1402;SDS011;696;48.546;9.896;2024-03-25T02:54:25;0.30;;;0.30;;
1402;SDS011;696;48.546;9.896;2024-03-25T02:56:50;0.40;;;0.40;;
1402;SDS011;696;48.546;9.896;2024-03-25T02:59:16;0.50;;;0.50;;
1402;SDS011;696;48.546;9.896;2024-03-25T03:01:41;0.45;;;0.45;;
1402;SDS011;696;48.546;9.896;2024-03-25T03:04:06;0.40;;;0.40;;
1402;SDS011;696;48.546;9.896;2024-03-25T03:06:32;0.40;;;0.40;;
1402;SDS011;696;48.546;9.896;2024-03-25T03:08:57;0.50;;;0.50;;
1402;SDS011;696;48.546;9.896;2024-03-25T03:11:22;0.50;;;0.50;;
1402;SDS011;696;48.546;9.896;2024-03-25T03:13:48;0.40;;;0.40;;
1402;SDS011;696;48.546;9.896;2024-03-25T03:16:13;0.40;;;0.40;;
1402;SDS011;696;48.546;9.896;2024-03-25T03:18:39;0.30;;;0.30;;
1402;SDS011;696;48.546;9.896;2024-03-25T03:21:04;0.43;;;0.43;;
1402;SDS011;696;48.546;9.896;2024-03-25T03:23:30;0.40;;;0.40;;
1402;SDS011;696;48.546;9.896;2024-03-25T03:25:55;0.40;;;0.40;;
1402;SDS011;696;48.546;9.896;2024-03-25T03:28:22;0.40;;;0.40;;
1402;SDS011;696;48.546;9.896;2024-03-25T03:30:47;0.40;;;0.40;;
1402;SDS011;696;48.546;9.896;2024-03-25T03:33:12;0.35;;;0.35;;
1402;SDS011;696;48.546;9.896;2024-03-25T03:35:38;0.40;;;0.40;;
1402;SDS011;696;48.546;9.896;2024-03-25T03:38:03;0.30;;;0.30;;
1402;SDS011;696;48.546;9.896;2024-03-25T03:40:29;0.40;;;0.40;;
1402;SDS011;696;48.546;9.896;2024-03-25T03:42:54;0.50;;;0.50;;
1402;SDS011;696;48.546;9.896;2024-03-25T03:45:21;0.40;;;0.40;;
1402;SDS011;696;48.546;9.896;2024-03-25T03:47:48;0.50;;;0.50;;
1402;SDS011;696;48.546;9.896;2024-03-25T03:50:14;0.40;;;0.40;;
1402;SDS011;696;48.546;9.896;2024-03-25T03:52:39;0.40;;;0.40;;
1402;SDS011;696;48.546;9.896;2024-03-25T03:55:04;0.40;;;0.40;;
1402;SDS011;696;48.546;9.896;2024-03-25T03:57:31;0.40;;;0.40;;
1402;SDS011;696;48.546;9.896;2024-03-25T03:59:57;0.40;;;0.40;;
1402;SDS011;696;48.546;9.896;2024-03-25T04:02:22;0.40;;;0.40;;
1402;SDS011;696;48.546;9.896;2024-03-25T04:04:48;0.40;;;0.40;;
1402;SDS011;696;48.546;9.896;2024-03-25T04:07:13;0.50;;;0.50;;
1402;SDS011;696;48.546;9.896;2024-03-25T04:09:39;0.40;;;0.40;;
1402;SDS011;696;48.546;9.896;2024-03-25T04:12:04;0.40;;;0.40;;
1402;SDS011;696;48.546;9.896;2024-03-25T04:14:30;0.45;;;0.45;;
1402;SDS011;696;48.546;9.896;2024-03-25T04:16:56;0.43;;;0.43;;
1402;SDS011;696;48.546;9.896;2024-03-25T04:19:24;0.40;;;0.40;;
1402;SDS011;696;48.546;9.896;2024-03-25T04:21:50;0.57;;;0.57;;
1402;SDS011;696;48.546;9.896;2024-03-25T04:24:16;0.43;;;0.43;;
1402;SDS011;696;48.546;9.896;2024-03-25T04:26:42;0.40;;;0.40;;
1402;SDS011;696;48.546;9.896;2024-03-25T04:29:09;0.60;;;0.60;;
1402;SDS011;696;48.546;9.896;2024-03-25T04:31:34;0.50;;;0.50;;
1402;SDS011;696;48.546;9.896;2024-03-25T04:34:01;0.43;;;0.43;;
1402;SDS011;696;48.546;9.896;2024-03-25T04:36:26;0.50;;;0.50;;
1402;SDS011;696;48.546;9.896;2024-03-25T04:38:52;0.43;;;0.43;;
1402;SDS011;696;48.546;9.896;2024-03-25T04:41:17;0.50;;;0.50;;
1402;SDS011;696;48.546;9.896;2024-03-25T04:43:42;0.40;;;0.40;;
1402;SDS011;696;48.546;9.896;2024-03-25T04:46:08;0.40;;;0.40;;
1402;SDS011;696;48.546;9.896;2024-03-25T04:48:33;0.45;;;0.45;;
1402;SDS011;696;48.546;9.896;2024-03-25T04:50:58;0.40;;;0.40;;
1402;SDS011;696;48.546;9.896;2024-03-25T04:53:24;0.50;;;0.50;;
1402;SDS011;696;48.546;9.896;2024-03-25T04:55:49;0.50;;;0.50;;
1402;SDS011;696;48.546;9.896;2024-03-25T04:58:14;0.50;;;0.50;;
1402;SDS011;696;48.546;9.896;2024-03-25T05:00:40;0.45;;;0.45;;
1402;SDS011;696;48.546;9.896;2024-03-25T05:03:05;0.60;;;0.60;;
1402;SDS011;696;48.546;9.896;2024-03-25T05:05:30;0.40;;;0.40;;
1402;SDS011;696;48.546;9.896;2024-03-25T05:07:56;0.50;;;0.50;;
1402;SDS011;696;48.546;9.896;2024-03-25T05:10:21;0.50;;;0.50;;
1402;SDS011;696;48.546;9.896;2024-03-25T05:12:46;0.50;;;0.50;;
1402;SDS011;696;48.546;9.896;2024-03-25T05:15:14;0.40;;;0.40;;
1402;SDS011;696;48.546;9.896;2024-03-25T05:17:40;0.50;;;0.50;;
1402;SDS011;696;48.546;9.896;2024-03-25T05:20:06;0.45;;;0.45;;
1402;SDS011;696;48.546;9.896;2024-03-25T05:22:31;0.40;;;0.40;;
1402;SDS011;696;48.546;9.896;2024-03-25T05:24:56;0.40;;;0.40;;
1402;SDS011;696;48.546;9.896;2024-03-25T05:27:22;0.40;;;0.40;;
1402;SDS011;696;48.546;9.896;2024-03-25T05:29:48;0.40;;;0.40;;
1402;SDS011;696;48.546;9.896;2024-03-25T05:32:14;0.52;;;0.52;;
1402;SDS011;696;48.546;9.896;2024-03-25T05:34:41;0.40;;;0.40;;
1402;SDS011;696;48.546;9.896;2024-03-25T05:37:07;0.50;;;0.50;;
1402;SDS011;696;48.546;9.896;2024-03-25T05:39:32;0.50;;;0.50;;
1402;SDS011;696;48.546;9.896;2024-03-25T05:41:57;0.50;;;0.50;;
1402;SDS011;696;48.546;9.896;2024-03-25T05:44:23;0.55;;;0.55;;
1402;SDS011;696;48.546;9.896;2024-03-25T05:46:48;0.40;;;0.40;;
1402;SDS011;696;48.546;9.896;2024-03-25T05:49:14;0.40;;;0.40;;
1402;SDS011;696;48.546;9.896;2024-03-25T05:51:39;0.40;;;0.40;;
1402;SDS011;696;48.546;9.896;2024-03-25T05:54:04;0.50;;;0.50;;
1402;SDS011;696;48.546;9.896;2024-03-25T05:56:30;0.43;;;0.43;;
1402;SDS011;696;48.546;9.896;2024-03-25T05:58:59;0.43;;;0.43;;
1402;SDS011;696;48.546;9.896;2024-03-25T06:01:24;0.50;;;0.50;;
1402;SDS011;696;48.546;9.896;2024-03-25T06:03:50;0.40;;;0.40;;
1402;SDS011;696;48.546;9.896;2024-03-25T06:06:16;0.40;;;0.40;;
1402;SDS011;696;48.546;9.896;2024-03-25T06:08:42;0.40;;;0.40;;
1402;SDS011;696;48.546;9.896;2024-03-25T06:11:07;0.40;;;0.40;;
1402;SDS011;696;48.546;9.896;2024-03-25T06:13:33;0.50;;;0.50;;
1402;SDS011;696;48.546;9.896;2024-03-25T06:15:58;0.40;;;0.40;;
1402;SDS011;696;48.546;9.896;2024-03-25T06:18:24;0.50;;;0.50;;
1402;SDS011;696;48.546;9.896;2024-03-25T06:20:49;0.32;;;0.32;;
1402;SDS011;696;48.546;9.896;2024-03-25T06:23:27;0.40;;;0.40;;
1402;SDS011;696;48.546;9.896;2024-03-25T06:25:53;0.30;;;0.30;;
1402;SDS011;696;48.546;9.896;2024-03-25T06:28:20;0.30;;;0.30;;
1402;SDS011;696;48.546;9.896;2024-03-25T06:30:46;0.40;;;0.40;;
1402;SDS011;696;48.546;9.896;2024-03-25T06:33:30;0.40;;;0.40;;
1402;SDS011;696;48.546;9.896;2024-03-25T06:36:14;0.30;;;0.30;;
1402;SDS011;696;48.546;9.896;2024-03-25T06:38:40;0.32;;;0.32;;
1402;SDS011;696;48.546;9.896;2024-03-25T06:41:06;0.40;;;0.40;;
1402;SDS011;696;48.546;9.896;2024-03-25T06:43:31;0.40;;;0.40;;
1402;SDS011;696;48.546;9.896;2024-03-25T06:45:56;0.47;;;0.47;;
1402;SDS011;696;48.546;9.896;2024-03-25T06:48:22;0.40;;;0.40;;
1402;SDS011;696;48.546;9.896;2024-03-25T06:50:56;0.30;;;0.30;;
1402;SDS011;696;48.546;9.896;2024-03-25T06:53:22;0.38;;;0.38;;
1402;SDS011;696;48.546;9.896;2024-03-25T06:55:51;0.40;;;0.40;;
1402;SDS011;696;48.546;9.896;2024-03-25T06:58:18;0.40;;;0.40;;
1402;SDS011;696;48.546;9.896;2024-03-25T07:00:44;0.40;;;0.40;;
1402;SDS011;696;48.546;9.896;2024-03-25T07:03:09;0.40;;;0.40;;
1402;SDS011;696;48.546;9.896;2024-03-25T07:05:35;0.30;;;0.30;;
1402;SDS011;696;48.546;9.896;2024-03-25T07:08:00;0.30;;;0.30;;
1402;SDS011;696;48.546;9.896;2024-03-25T07:10:25;0.30;;;0.30;;
1402;SDS011;696;48.546;9.896;2024-03-25T07:12:51;0.38;;;0.38;;
1402;SDS011;696;48.546;9.896;2024-03-25T07:15:16;0.40;;;0.40;;
1402;SDS011;696;48.546;9.896;2024-03-25T07:17:41;0.40;;;0.40;;
1402;SDS011;696;48.546;9.896;2024-03-25T07:20:07;0.40;;;0.40;;
1402;SDS011;696;48.546;9.896;2024-03-25T07:22:33;0.40;;;0.40;;
1402;SDS011;696;48.546;9.896;2024-03-25T07:24:59;0.40;;;0.40;;
1402;SDS011;696;48.546;9.896;2024-03-25T07:27:24;0.30;;;0.30;;
1402;SDS011;696;48.546;9.896;2024-03-25T07:29:49;0.30;;;0.30;;
1402;SDS011;696;48.546;9.896;2024-03-25T07:32:16;0.30;;;0.30;;
1402;SDS011;696;48.546;9.896;2024-03-25T07:34:41;0.30;;;0.30;;
1402;SDS011;696;48.546;9.896;2024-03-25T07:37:07;0.40;;;0.40;;
1402;SDS011;696;48.546;9.896;2024-03-25T07:39:32;0.40;;;0.40;;
1402;SDS011;696;48.546;9.896;2024-03-25T07:41:57;0.30;;;0.30;;
1402;SDS011;696;48.546;9.896;2024-03-25T07:44:24;0.30;;;0.30;;
1402;SDS011;696;48.546;9.896;2024-03-25T07:46:49;0.40;;;0.40;;
1402;SDS011;696;48.546;9.896;2024-03-25T07:49:15;0.40;;;0.40;;
1402;SDS011;696;48.546;9.896;2024-03-25T07:51:40;0.35;;;0.35;;
1402;SDS011;696;48.546;9.896;2024-03-25T07:54:06;0.30;;;0.30;;
1402;SDS011;696;48.546;9.896;2024-03-25T07:56:31;0.30;;;0.30;;
1402;SDS011;696;48.546;9.896;2024-03-25T07:58:57;0.30;;;0.30;;
1402;SDS011;696;48.546;9.896;2024-03-25T08:01:24;0.40;;;0.40;;
1402;SDS011;696;48.546;9.896;2024-03-25T08:03:50;0.30;;;0.30;;
1402;SDS011;696;48.546;9.896;2024-03-25T08:06:15;0.30;;;0.30;;
1402;SDS011;696;48.546;9.896;2024-03-25T08:08:41;0.30;;;0.30;;
1402;SDS011;696;48.546;9.896;2024-03-25T08:11:06;0.30;;;0.30;;
1402;SDS011;696;48.546;9.896;2024-03-25T08:13:32;0.30;;;0.30;;
1402;SDS011;696;48.546;9.896;2024-03-25T08:15:57;0.30;;;0.30;;
1402;SDS011;696;48.546;9.896;2024-03-25T08:18:23;0.30;;;0.30;;
1402;SDS011;696;48.546;9.896;2024-03-25T08:20:48;0.30;;;0.30;;
1402;SDS011;696;48.546;9.896;2024-03-25T08:23:13;0.30;;;0.30;;
1402;SDS011;696;48.546;9.896;2024-03-25T08:25:39;0.40;;;0.40;;
1402;SDS011;696;48.546;9.896;2024-03-25T08:28:04;0.30;;;0.30;;
1402;SDS011;696;48.546;9.896;2024-03-25T08:30:30;0.30;;;0.30;;
1402;SDS011;696;48.546;9.896;2024-03-25T08:32:55;0.30;;;0.30;;
1402;SDS011;696;48.546;9.896;2024-03-25T08:35:21;0.22;;;0.22;;
1402;SDS011;696;48.546;9.896;2024-03-25T08:37:46;0.30;;;0.30;;
1402;SDS011;696;48.546;9.896;2024-03-25T08:40:12;0.30;;;0.30;;
1402;SDS011;696;48.546;9.896;2024-03-25T08:42:37;0.30;;;0.30;;
1402;SDS011;696;48.546;9.896;2024-03-25T08:45:02;0.30;;;0.30;;
1402;SDS011;696;48.546;9.896;2024-03-25T08:47:28;0.20;;;0.20;;
1402;SDS011;696;48.546;9.896;2024-03-25T08:49:54;0.30;;;0.30;;
1402;SDS011;696;48.546;9.896;2024-03-25T08:52:19;0.30;;;0.30;;
1402;SDS011;696;48.546;9.896;2024-03-25T08:54:45;0.30;;;0.30;;
1402;SDS011;696;48.546;9.896;2024-03-25T08:57:10;0.20;;;0.20;;
1402;SDS011;696;48.546;9.896;2024-03-25T08:59:36;0.30;;;0.30;;
1402;SDS011;696;48.546;9.896;2024-03-25T09:02:01;0.20;;;0.20;;
1402;SDS011;696;48.546;9.896;2024-03-25T09:04:26;0.20;;;0.20;;
1402;SDS011;696;48.546;9.896;2024-03-25T09:06:52;0.30;;;0.30;;
1402;SDS011;696;48.546;9.896;2024-03-25T09:09:17;0.30;;;0.30;;
1402;SDS011;696;48.546;9.896;2024-03-25T09:12:01;0.30;;;0.30;;
1402;SDS011;696;48.546;9.896;2024-03-25T09:14:27;0.30;;;0.30;;
1402;SDS011;696;48.546;9.896;2024-03-25T09:16:52;0.20;;;0.20;;
1402;SDS011;696;48.546;9.896;2024-03-25T09:19:17;0.30;;;0.30;;
1402;SDS011;696;48.546;9.896;2024-03-25T09:21:43;0.20;;;0.20;;
1402;SDS011;696;48.546;9.896;2024-03-25T09:24:08;0.30;;;0.30;;
1402;SDS011;696;48.546;9.896;2024-03-25T09:26:34;0.20;;;0.20;;
1402;SDS011;696;48.546;9.896;2024-03-25T09:28:59;0.30;;;0.30;;
1402;SDS011;696;48.546;9.896;2024-03-25T09:31:24;0.30;;;0.30;;
1402;SDS011;696;48.546;9.896;2024-03-25T09:33:50;0.30;;;0.30;;
1402;SDS011;696;48.546;9.896;2024-03-25T09:36:15;0.30;;;0.30;;
1402;SDS011;696;48.546;9.896;2024-03-25T09:38:40;0.28;;;0.28;;
1402;SDS011;696;48.546;9.896;2024-03-25T09:41:08;0.20;;;0.20;;
1402;SDS011;696;48.546;9.896;2024-03-25T09:43:37;0.20;;;0.20;;
1402;SDS011;696;48.546;9.896;2024-03-25T09:46:10;0.30;;;0.30;;
1402;SDS011;696;48.546;9.896;2024-03-25T09:48:36;0.20;;;0.20;;
1402;SDS011;696;48.546;9.896;2024-03-25T09:51:02;0.20;;;0.20;;
1402;SDS011;696;48.546;9.896;2024-03-25T09:53:29;0.30;;;0.30;;
1402;SDS011;696;48.546;9.896;2024-03-25T09:55:55;0.30;;;0.30;;
1402;SDS011;696;48.546;9.896;2024-03-25T09:58:21;0.20;;;0.20;;
1402;SDS011;696;48.546;9.896;2024-03-25T10:00:47;0.20;;;0.20;;
1402;SDS011;696;48.546;9.896;2024-03-25T10:03:13;0.20;;;0.20;;
1402;SDS011;696;48.546;9.896;2024-03-25T10:05:39;0.30;;;0.30;;
1402;SDS011;696;48.546;9.896;2024-03-25T10:08:04;0.20;;;0.20;;
1402;SDS011;696;48.546;9.896;2024-03-25T10:10:30;0.20;;;0.20;;
1402;SDS011;696;48.546;9.896;2024-03-25T10:12:56;0.20;;;0.20;;
1402;SDS011;696;48.546;9.896;2024-03-25T10:15:21;0.20;;;0.20;;
1402;SDS011;696;48.546;9.896;2024-03-25T10:17:49;0.20;;;0.20;;
1402;SDS011;696;48.546;9.896;2024-03-25T10:20:14;0.20;;;0.20;;
1402;SDS011;696;48.546;9.896;2024-03-25T10:22:40;0.20;;;0.20;;
1402;SDS011;696;48.546;9.896;2024-03-25T10:25:06;0.20;;;0.20;;
1402;SDS011;696;48.546;9.896;2024-03-25T10:27:33;0.20;;;0.20;;
1402;SDS011;696;48.546;9.896;2024-03-25T10:29:58;0.20;;;0.20;;
1402;SDS011;696;48.546;9.896;2024-03-25T10:32:23;0.17;;;0.17;;
1402;SDS011;696;48.546;9.896;2024-03-25T10:34:53;0.20;;;0.20;;
1402;SDS011;696;48.546;9.896;2024-03-25T10:37:19;0.20;;;0.20;;
1402;SDS011;696;48.546;9.896;2024-03-25T10:39:47;0.20;;;0.20;;
1402;SDS011;696;48.546;9.896;2024-03-25T10:42:18;0.20;;;0.20;;
1402;SDS011;696;48.546;9.896;2024-03-25T10:44:44;0.20;;;0.20;;
1402;SDS011;696;48.546;9.896;2024-03-25T10:47:09;0.13;;;0.13;;
1402;SDS011;696;48.546;9.896;2024-03-25T10:52:15;0.20;;;0.20;;
1402;SDS011;696;48.546;9.896;2024-03-25T10:54:42;0.10;;;0.10;;
1402;SDS011;696;48.546;9.896;2024-03-25T10:57:08;0.20;;;0.20;;
1402;SDS011;696;48.546;9.896;2024-03-25T10:59:35;0.15;;;0.15;;
1402;SDS011;696;48.546;9.896;2024-03-25T11:02:06;0.20;;;0.20;;
1402;SDS011;696;48.546;9.896;2024-03-25T11:04:31;0.20;;;0.20;;
1402;SDS011;696;48.546;9.896;2024-03-25T11:07:06;0.20;;;0.20;;
1402;SDS011;696;48.546;9.896;2024-03-25T11:09:35;0.20;;;0.20;;
1402;SDS011;696;48.546;9.896;2024-03-25T11:12:01;0.20;;;0.20;;
1402;SDS011;696;48.546;9.896;2024-03-25T11:14:27;0.20;;;0.20;;
1402;SDS011;696;48.546;9.896;2024-03-25T11:16:53;0.20;;;0.20;;
1402;SDS011;696;48.546;9.896;2024-03-25T11:19:19;0.20;;;0.20;;
1402;SDS011;696;48.546;9.896;2024-03-25T11:21:45;0.20;;;0.20;;
1402;SDS011;696;48.546;9.896;2024-03-25T11:24:11;0.20;;;0.20;;
1402;SDS011;696;48.546;9.896;2024-03-25T11:26:40;0.20;;;0.20;;
1402;SDS011;696;48.546;9.896;2024-03-25T11:29:06;0.20;;;0.20;;
1402;SDS011;696;48.546;9.896;2024-03-25T11:31:33;0.13;;;0.13;;
1402;SDS011;696;48.546;9.896;2024-03-25T11:34:03;0.20;;;0.20;;
1402;SDS011;696;48.546;9.896;2024-03-25T11:36:29;0.20;;;0.20;;
1402;SDS011;696;48.546;9.896;2024-03-25T11:39:02;0.20;;;0.20;;
1402;SDS011;696;48.546;9.896;2024-03-25T11:41:33;0.17;;;0.17;;
1402;SDS011;696;48.546;9.896;2024-03-25T11:43:58;0.10;;;0.10;;
1402;SDS011;696;48.546;9.896;2024-03-25T11:46:25;0.10;;;0.10;;
1402;SDS011;696;48.546;9.896;2024-03-25T11:48:50;0.13;;;0.13;;
1402;SDS011;696;48.546;9.896;2024-03-25T11:51:17;0.20;;;0.20;;
1402;SDS011;696;48.546;9.896;2024-03-25T11:53:42;0.20;;;0.20;;
1402;SDS011;696;48.546;9.896;2024-03-25T11:56:08;0.20;;;0.20;;
1402;SDS011;696;48.546;9.896;2024-03-25T11:58:33;0.20;;;0.20;;
1402;SDS011;696;48.546;9.896;2024-03-25T12:00:59;0.10;;;0.10;;
1402;SDS011;696;48.546;9.896;2024-03-25T12:03:25;0.10;;;0.10;;
1402;SDS011;696;48.546;9.896;2024-03-25T12:05:50;0.20;;;0.20;;
1402;SDS011;696;48.546;9.896;2024-03-25T12:08:16;0.20;;;0.20;;
1402;SDS011;696;48.546;9.896;2024-03-25T12:10:42;0.20;;;0.20;;
1402;SDS011;696;48.546;9.896;2024-03-25T12:13:25;0.20;;;0.20;;
1402;SDS011;696;48.546;9.896;2024-03-25T12:15:52;0.20;;;0.20;;
1402;SDS011;696;48.546;9.896;2024-03-25T12:18:18;0.20;;;0.20;;
1402;SDS011;696;48.546;9.896;2024-03-25T12:20:46;0.20;;;0.20;;
1402;SDS011;696;48.546;9.896;2024-03-25T12:23:11;0.10;;;0.10;;
1402;SDS011;696;48.546;9.896;2024-03-25T12:25:37;0.20;;;0.20;;
1402;SDS011;696;48.546;9.896;2024-03-25T12:28:07;0.13;;;0.13;;
1402;SDS011;696;48.546;9.896;2024-03-25T12:30:39;0.10;;;0.10;;
1402;SDS011;696;48.546;9.896;2024-03-25T12:33:13;0.10;;;0.10;;
1402;SDS011;696;48.546;9.896;2024-03-25T12:35:39;0.10;;;0.10;;
1402;SDS011;696;48.546;9.896;2024-03-25T12:38:04;0.10;;;0.10;;
1402;SDS011;696;48.546;9.896;2024-03-25T12:40:31;0.10;;;0.10;;
1402;SDS011;696;48.546;9.896;2024-03-25T12:42:56;0.10;;;0.10;;
1402;SDS011;696;48.546;9.896;2024-03-25T12:45:22;0.10;;;0.10;;
1402;SDS011;696;48.546;9.896;2024-03-25T12:47:50;0.10;;;0.10;;
1402;SDS011;696;48.546;9.896;2024-03-25T12:50:16;0.10;;;0.10;;
1402;SDS011;696;48.546;9.896;2024-03-25T12:52:41;0.10;;;0.10;;
1402;SDS011;696;48.546;9.896;2024-03-25T12:55:07;0.10;;;0.10;;
1402;SDS011;696;48.546;9.896;2024-03-25T12:57:32;0.00;;;0.00;;
1402;SDS011;696;48.546;9.896;2024-03-25T12:59:57;0.00;;;0.00;;
1402;SDS011;696;48.546;9.896;2024-03-25T13:02:23;0.05;;;0.05;;
1402;SDS011;696;48.546;9.896;2024-03-25T13:04:49;0.00;;;0.00;;
1402;SDS011;696;48.546;9.896;2024-03-25T13:07:14;0.00;;;0.00;;
1402;SDS011;696;48.546;9.896;2024-03-25T13:09:39;0.00;;;0.00;;
1402;SDS011;696;48.546;9.896;2024-03-25T13:12:05;0.00;;;0.00;;
1402;SDS011;696;48.546;9.896;2024-03-25T13:14:30;0.00;;;0.00;;
1402;SDS011;696;48.546;9.896;2024-03-25T13:16:55;0.00;;;0.00;;
1402;SDS011;696;48.546;9.896;2024-03-25T13:19:21;0.00;;;0.00;;
1402;SDS011;696;48.546;9.896;2024-03-25T13:21:46;0.00;;;0.00;;
1402;SDS011;696;48.546;9.896;2024-03-25T13:24:12;0.00;;;0.00;;
1402;SDS011;696;48.546;9.896;2024-03-25T13:26:38;0.00;;;0.00;;
1402;SDS011;696;48.546;9.896;2024-03-25T13:29:03;0.00;;;0.00;;
1402;SDS011;696;48.546;9.896;2024-03-25T13:31:30;0.00;;;0.00;;
1402;SDS011;696;48.546;9.896;2024-03-25T13:33:55;0.00;;;0.00;;
1402;SDS011;696;48.546;9.896;2024-03-25T13:36:21;0.00;;;0.00;;
1402;SDS011;696;48.546;9.896;2024-03-25T13:38:46;0.00;;;0.00;;
1402;SDS011;696;48.546;9.896;2024-03-25T13:41:11;0.00;;;0.00;;
1402;SDS011;696;48.546;9.896;2024-03-25T13:43:42;0.00;;;0.00;;
1402;SDS011;696;48.546;9.896;2024-03-25T13:46:07;0.00;;;0.00;;
1402;SDS011;696;48.546;9.896;2024-03-25T13:48:33;0.00;;;0.00;;
1402;SDS011;696;48.546;9.896;2024-03-25T13:50:58;0.00;;;0.00;;
1402;SDS011;696;48.546;9.896;2024-03-25T13:53:24;0.00;;;0.00;;
1402;SDS011;696;48.546;9.896;2024-03-25T13:55:49;0.00;;;0.00;;
1402;SDS011;696;48.546;9.896;2024-03-25T13:58:14;0.00;;;0.00;;
1402;SDS011;696;48.546;9.896;2024-03-25T14:00:40;0.00;;;0.00;;
1402;SDS011;696;48.546;9.896;2024-03-25T14:03:06;0.00;;;0.00;;
1402;SDS011;696;48.546;9.896;2024-03-25T14:05:31;0.00;;;0.00;;
1402;SDS011;696;48.546;9.896;2024-03-25T14:07:56;0.00;;;0.00;;
1402;SDS011;696;48.546;9.896;2024-03-25T14:10:22;0.00;;;0.00;;
1402;SDS011;696;48.546;9.896;2024-03-25T14:12:47;0.00;;;0.00;;
1402;SDS011;696;48.546;9.896;2024-03-25T14:15:13;0.00;;;0.00;;
1402;SDS011;696;48.546;9.896;2024-03-25T14:17:38;0.00;;;0.00;;
1402;SDS011;696;48.546;9.896;2024-03-25T14:20:03;0.00;;;0.00;;
1402;SDS011;696;48.546;9.896;2024-03-25T14:22:31;0.00;;;0.00;;
1402;SDS011;696;48.546;9.896;2024-03-25T14:24:57;0.00;;;0.00;;
1402;SDS011;696;48.546;9.896;2024-03-25T14:27:23;0.00;;;0.00;;
1402;SDS011;696;48.546;9.896;2024-03-25T14:29:49;0.00;;;0.00;;
1402;SDS011;696;48.546;9.896;2024-03-25T14:32:14;0.00;;;0.00;;
1402;SDS011;696;48.546;9.896;2024-03-25T14:34:39;0.00;;;0.00;;
1402;SDS011;696;48.546;9.896;2024-03-25T14:37:05;0.00;;;0.00;;
1402;SDS011;696;48.546;9.896;2024-03-25T14:39:30;0.00;;;0.00;;
1402;SDS011;696;48.546;9.896;2024-03-25T14:41:56;0.00;;;0.00;;
1402;SDS011;696;48.546;9.896;2024-03-25T14:44:21;0.00;;;0.00;;
1402;SDS011;696;48.546;9.896;2024-03-25T14:46:46;0.00;;;0.00;;
1402;SDS011;696;48.546;9.896;2024-03-25T14:49:12;0.00;;;0.00;;
1402;SDS011;696;48.546;9.896;2024-03-25T14:51:37;0.00;;;0.00;;
1402;SDS011;696;48.546;9.896;2024-03-25T14:54:02;0.10;;;0.10;;
1402;SDS011;696;48.546;9.896;2024-03-25T14:56:28;0.00;;;0.00;;
1402;SDS011;696;48.546;9.896;2024-03-25T14:58:54;0.00;;;0.00;;
1402;SDS011;696;48.546;9.896;2024-03-25T15:01:19;0.03;;;0.03;;
1402;SDS011;696;48.546;9.896;2024-03-25T15:03:44;0.00;;;0.00;;
1402;SDS011;696;48.546;9.896;2024-03-25T15:06:10;0.10;;;0.10;;
1402;SDS011;696;48.546;9.896;2024-03-25T15:08:35;0.10;;;0.10;;
1402;SDS011;696;48.546;9.896;2024-03-25T15:11:02;0.05;;;0.05;;
1402;SDS011;696;48.546;9.896;2024-03-25T15:13:28;0.00;;;0.00;;
1402;SDS011;696;48.546;9.896;2024-03-25T15:15:54;0.00;;;0.00;;
1402;SDS011;696;48.546;9.896;2024-03-25T15:18:19;0.00;;;0.00;;
1402;SDS011;696;48.546;9.896;2024-03-25T15:20:44;0.00;;;0.00;;
1402;SDS011;696;48.546;9.896;2024-03-25T15:23:10;0.03;;;0.03;;
1402;SDS011;696;48.546;9.896;2024-03-25T15:25:35;0.00;;;0.00;;